KCDN/CDN METAR and TAF weather

Enter ICAO airport designator
Station Type Date Time Source
KCDN METAR 2020/11/28 19:55 UTC NOAA

KCDN 281955Z AUTO 00000KT 10SM CLR 18/10 A3007 RMK AO2


Station Type Date Time Source
KCDN Decoded METAR 2020/11/28 19:55 UTC NOAA

Station name not available
Nov 28, 2020 - 02:55 PM EST / 2020.11.28 1955 UTC
Wind: Calm:0
Visibility: 10 mile(s):0
Sky conditions: clear
Temperature: 64 F (18 C)
Dew Point: 50 F (10 C)
Relative Humidity: 59%
Pressure (altimeter): 30.07 in. Hg (1018 hPa)
ob: KCDN 281955Z AUTO 00000KT 10SM CLR 18/10 A3007 RMK AO2
cycle: 20

Station Type Date Time Source
KCDN TAF UTC NOAA

Error!

Example: see airport list